createdAt,value
2023-02-15T00:01:58.992Z,28.33
2023-02-15T00:04:45.226Z,28.77
2023-02-15T00:07:12.536Z,27.13
2023-02-15T00:09:39.868Z,27.35
2023-02-15T00:12:07.200Z,32.35
2023-02-15T00:14:34.455Z,28.48
2023-02-15T00:17:01.791Z,29.33
2023-02-15T00:19:29.069Z,28.70
2023-02-15T00:21:56.717Z,28.20
2023-02-15T00:24:24.061Z,28.00
2023-02-15T00:26:51.361Z,27.30
2023-02-15T00:29:19.678Z,28.30
2023-02-15T00:31:47.396Z,30.92
2023-02-15T00:34:22.291Z,28.58
2023-02-15T00:36:50.093Z,29.92
2023-02-15T00:39:17.934Z,28.48
2023-02-15T00:41:47.049Z,28.40
2023-02-15T00:44:14.700Z,31.48
2023-02-15T00:46:41.976Z,26.83
2023-02-15T00:49:10.548Z,27.88
2023-02-15T00:51:38.924Z,29.25
2023-02-15T00:54:06.255Z,29.83
2023-02-15T00:56:33.632Z,30.55
2023-02-15T00:59:00.936Z,32.42
2023-02-15T01:01:28.314Z,30.75
2023-02-15T01:03:55.624Z,30.42
2023-02-15T01:06:22.920Z,27.77
2023-02-15T01:08:50.453Z,27.00
2023-02-15T01:11:23.130Z,30.35
2023-02-15T01:13:52.218Z,28.70
2023-02-15T01:16:19.700Z,28.52
2023-02-15T01:18:47.319Z,29.43
2023-02-15T01:21:17.922Z,30.30
2023-02-15T01:23:45.558Z,30.25
2023-02-15T01:26:14.145Z,28.27
2023-02-15T01:28:41.780Z,28.77
2023-02-15T01:31:16.654Z,28.88
2023-02-15T01:33:46.325Z,32.88
2023-02-15T01:36:13.648Z,28.55
2023-02-15T01:38:41.029Z,29.77
2023-02-15T01:41:28.066Z,30.73
2023-02-15T01:43:59.672Z,34.17
2023-02-15T01:46:37.544Z,28.75
2023-02-15T01:49:10.492Z,31.17
2023-02-15T01:51:39.574Z,26.13
2023-02-15T01:54:27.269Z,27.33
2023-02-15T01:56:56.168Z,27.10
2023-02-15T01:59:24.930Z,27.83
2023-02-15T02:01:54.056Z,28.65
2023-02-15T02:04:33.152Z,28.38
2023-02-15T02:07:01.305Z,26.70
2023-02-15T02:09:28.683Z,31.00
2023-02-15T02:11:56.098Z,28.17
2023-02-15T02:14:24.258Z,25.70
2023-02-15T02:17:02.342Z,28.48
2023-02-15T02:19:39.269Z,27.17
2023-02-15T02:22:28.736Z,25.33
2023-02-15T02:25:14.381Z,30.40
2023-02-15T02:28:01.411Z,28.08
2023-02-15T02:30:45.782Z,30.40
2023-02-15T02:33:18.895Z,29.75
2023-02-15T02:36:10.039Z,27.47
2023-02-15T02:38:40.404Z,26.17
2023-02-15T02:41:17.332Z,31.88
2023-02-15T02:43:44.757Z,29.65
2023-02-15T02:46:16.307Z,31.85
2023-02-15T02:48:43.616Z,26.52
2023-02-15T02:51:12.889Z,29.30
2023-02-15T02:53:43.235Z,26.25
2023-02-15T02:56:20.690Z,28.85
2023-02-15T02:58:50.335Z,28.83
2023-02-15T03:01:20.634Z,28.67
2023-02-15T03:03:48.474Z,30.05
2023-02-15T03:06:19.827Z,25.98
2023-02-15T03:08:49.115Z,28.42
2023-02-15T03:11:16.520Z,28.75
2023-02-15T03:13:44.957Z,30.73
2023-02-15T03:16:29.479Z,28.13
2023-02-15T03:19:15.862Z,29.20
2023-02-15T03:21:58.345Z,28.50
2023-02-15T03:24:27.397Z,27.52
2023-02-15T03:26:55.753Z,28.07
2023-02-15T03:29:25.251Z,26.50
2023-02-15T03:31:57.098Z,26.85
2023-02-15T03:34:24.573Z,30.23
2023-02-15T03:36:59.733Z,27.27
2023-02-15T03:39:37.451Z,30.48
2023-02-15T03:42:13.664Z,29.02
2023-02-15T03:44:58.650Z,28.20
2023-02-15T03:47:29.540Z,29.67
2023-02-15T03:49:59.811Z,28.30
2023-02-15T03:52:29.251Z,31.05
2023-02-15T03:54:56.944Z,32.30
2023-02-15T03:57:44.558Z,27.55
2023-02-15T04:00:30.617Z,29.83
2023-02-15T04:03:03.938Z,29.67
2023-02-15T04:05:31.298Z,30.48
2023-02-15T04:07:58.522Z,28.77
2023-02-15T04:10:44.420Z,27.42
2023-02-15T04:13:11.716Z,28.67
2023-02-15T04:15:57.643Z,33.67
2023-02-15T04:18:43.692Z,30.80
2023-02-15T04:21:29.747Z,25.98
2023-02-15T04:24:15.506Z,29.20
2023-02-15T04:26:42.839Z,29.77
2023-02-15T04:29:10.107Z,29.48
2023-02-15T04:31:37.500Z,29.20
2023-02-15T04:34:04.833Z,30.73
2023-02-15T04:36:32.111Z,31.63
2023-02-15T04:38:59.344Z,31.83
2023-02-15T04:41:26.698Z,33.38
2023-02-15T04:43:53.937Z,30.10
2023-02-15T04:46:21.238Z,28.63
2023-02-15T04:48:48.604Z,29.63
2023-02-15T04:51:15.864Z,31.75
2023-02-15T04:53:43.121Z,32.28
2023-02-15T04:56:10.373Z,30.15
2023-02-15T04:58:37.988Z,29.00
2023-02-15T05:01:05.345Z,28.30
2023-02-15T05:03:32.746Z,33.25
2023-02-15T05:06:00.218Z,29.83
2023-02-15T05:08:27.694Z,27.75
2023-02-15T05:10:54.920Z,30.58
2023-02-15T05:13:22.198Z,31.80
2023-02-15T05:15:53.263Z,32.60
2023-02-15T05:18:21.337Z,32.53
2023-02-15T05:20:48.999Z,28.25
2023-02-15T05:23:16.473Z,31.27
2023-02-15T05:26:06.657Z,29.13
2023-02-15T05:28:34.160Z,28.42
2023-02-15T05:31:06.378Z,27.77
2023-02-15T05:33:34.168Z,29.08
2023-02-15T05:36:02.526Z,30.73
2023-02-15T05:38:30.435Z,27.73
2023-02-15T05:40:57.986Z,26.98
2023-02-15T05:43:25.392Z,33.83
2023-02-15T05:45:56.020Z,33.38
2023-02-15T05:48:24.272Z,31.02
2023-02-15T05:51:03.530Z,32.63
2023-02-15T05:53:31.737Z,29.00
2023-02-15T05:56:03.500Z,28.13
2023-02-15T05:58:35.485Z,26.05
2023-02-15T06:01:12.025Z,29.13
2023-02-15T06:03:39.785Z,32.10
2023-02-15T06:06:07.516Z,30.63
2023-02-15T06:08:35.491Z,28.58
2023-02-15T06:11:03.009Z,32.15
2023-02-15T06:13:30.400Z,27.20
2023-02-15T06:15:57.916Z,33.85
2023-02-15T06:18:25.230Z,29.02
2023-02-15T06:20:52.506Z,29.88
2023-02-15T06:23:19.733Z,29.38
2023-02-15T06:25:47.708Z,27.25
2023-02-15T06:28:14.942Z,26.67
2023-02-15T06:30:42.372Z,27.88
2023-02-15T06:33:09.776Z,30.85
2023-02-15T06:35:37.073Z,31.65
2023-02-15T06:38:04.331Z,36.90
2023-02-15T06:40:31.708Z,27.33
2023-02-15T06:42:58.934Z,28.40
2023-02-15T06:45:26.233Z,29.58
2023-02-15T06:47:53.465Z,33.50
2023-02-15T06:50:20.746Z,31.38
2023-02-15T06:52:48.409Z,30.35
2023-02-15T06:55:15.777Z,32.47
2023-02-15T06:57:43.051Z,25.90
2023-02-15T07:00:10.712Z,29.15
2023-02-15T07:02:37.956Z,31.58
2023-02-15T07:05:06.196Z,31.50
2023-02-15T07:07:33.551Z,31.85
2023-02-15T07:10:00.844Z,27.33
2023-02-15T07:12:43.690Z,29.77
2023-02-15T07:15:11.693Z,32.58
2023-02-15T07:17:39.392Z,32.33
2023-02-15T07:20:11.544Z,31.85
2023-02-15T07:22:38.903Z,28.65
2023-02-15T07:25:07.316Z,32.17
2023-02-15T07:27:34.672Z,29.67
2023-02-15T07:30:02.443Z,31.38
2023-02-15T07:32:33.468Z,27.13
2023-02-15T07:35:01.106Z,28.20
2023-02-15T07:37:31.578Z,31.60
2023-02-15T07:39:58.885Z,31.65
2023-02-15T07:42:26.244Z,29.27
2023-02-15T07:44:53.959Z,29.63
2023-02-15T07:47:21.464Z,30.15
2023-02-15T07:49:50.376Z,31.65
2023-02-15T07:52:17.804Z,27.85
2023-02-15T07:54:45.305Z,30.15
2023-02-15T07:57:12.671Z,28.10
2023-02-15T07:59:39.989Z,29.90
2023-02-15T08:02:10.617Z,35.63
2023-02-15T08:04:38.042Z,28.08
2023-02-15T08:07:05.440Z,31.17
2023-02-15T08:09:32.870Z,29.80
2023-02-15T08:12:00.214Z,29.55
2023-02-15T08:14:28.912Z,30.40
2023-02-15T08:16:57.720Z,29.83
2023-02-15T08:19:29.073Z,30.15
2023-02-15T08:22:04.287Z,32.17
2023-02-15T08:24:32.738Z,28.25
2023-02-15T08:27:00.115Z,27.73
2023-02-15T08:29:28.821Z,27.98
2023-02-15T08:31:59.782Z,28.77
2023-02-15T08:34:27.384Z,27.10
2023-02-15T08:36:54.736Z,29.30
2023-02-15T08:39:22.439Z,31.92
2023-02-15T08:41:50.044Z,33.50
2023-02-15T08:44:18.387Z,27.10
2023-02-15T08:46:46.683Z,33.05
2023-02-15T08:49:15.777Z,31.38
2023-02-15T08:51:43.248Z,31.60
2023-02-15T08:54:12.284Z,37.75
2023-02-15T08:56:40.656Z,38.92
2023-02-15T08:59:08.746Z,33.38
2023-02-15T09:01:36.459Z,33.35
2023-02-15T09:04:11.148Z,32.70
2023-02-15T09:06:39.486Z,33.30
2023-02-15T09:09:07.177Z,32.92
2023-02-15T09:11:38.935Z,34.05
2023-02-15T09:14:08.155Z,31.55
2023-02-15T09:16:36.433Z,28.33
2023-02-15T09:19:05.722Z,29.02
2023-02-15T09:21:33.418Z,29.13
2023-02-15T09:24:02.160Z,29.33
2023-02-15T09:26:31.011Z,33.90
2023-02-15T09:28:59.720Z,30.13
2023-02-15T09:31:28.486Z,32.72
2023-02-15T09:33:55.913Z,28.85
2023-02-15T09:36:34.442Z,27.83
2023-02-15T09:39:10.152Z,28.85
2023-02-15T09:41:46.790Z,29.47
2023-02-15T09:44:29.348Z,30.95
2023-02-15T09:46:56.710Z,29.48
2023-02-15T09:49:42.914Z,31.55
2023-02-15T09:52:17.160Z,30.92
2023-02-15T09:55:03.404Z,31.87
2023-02-15T09:57:49.642Z,29.60
2023-02-15T10:00:22.976Z,28.58
2023-02-15T10:03:02.604Z,27.13
2023-02-15T10:05:40.204Z,28.02
2023-02-15T10:08:07.457Z,27.17
2023-02-15T10:10:47.143Z,31.70
2023-02-15T10:13:17.502Z,28.75
2023-02-15T10:15:44.876Z,26.15
2023-02-15T10:18:22.708Z,26.92
2023-02-15T10:20:59.172Z,27.50
2023-02-15T10:23:43.717Z,25.77
2023-02-15T10:26:15.065Z,34.92
2023-02-15T10:28:51.528Z,26.08
2023-02-15T10:31:19.037Z,24.42
2023-02-15T10:33:46.804Z,28.83
2023-02-15T10:36:29.103Z,24.92
2023-02-15T10:38:56.428Z,26.95
2023-02-15T10:41:23.579Z,33.33
2023-02-15T10:43:57.093Z,27.92
2023-02-15T10:46:24.948Z,28.67
2023-02-15T10:49:07.244Z,25.50
2023-02-15T10:51:50.014Z,29.88
2023-02-15T10:54:37.344Z,27.60
2023-02-15T10:57:10.702Z,60.42
2023-02-15T10:59:41.080Z,30.37
2023-02-15T11:02:21.077Z,29.73
2023-02-15T11:04:51.641Z,31.33
2023-02-15T11:07:22.943Z,31.92
2023-02-15T11:10:02.396Z,35.33
2023-02-15T11:12:30.874Z,29.57
2023-02-15T11:15:27.461Z,30.65
2023-02-15T11:17:59.085Z,63.88
2023-02-15T11:20:29.943Z,34.33
2023-02-15T11:22:57.982Z,41.13
2023-02-15T11:25:27.232Z,32.07
2023-02-15T11:27:54.764Z,32.50
2023-02-15T11:30:27.757Z,34.65
2023-02-15T11:32:57.359Z,42.00
2023-02-15T11:35:30.473Z,38.80
2023-02-15T11:38:16.511Z,32.13
2023-02-15T11:40:51.248Z,35.13
2023-02-15T11:43:18.700Z,33.65
2023-02-15T11:45:47.362Z,31.58
2023-02-15T11:48:15.636Z,32.40
2023-02-15T11:50:44.129Z,33.03
2023-02-15T11:53:28.665Z,40.97
2023-02-15T11:55:56.798Z,41.80
2023-02-15T11:58:42.418Z,31.92
2023-02-15T12:01:17.794Z,32.67
2023-02-15T12:03:47.064Z,52.93
2023-02-15T12:06:35.809Z,33.80
2023-02-15T12:09:22.536Z,38.28
2023-02-15T12:11:50.636Z,34.45
2023-02-15T12:14:17.891Z,34.08
2023-02-15T12:16:56.325Z,37.87
2023-02-15T12:19:40.927Z,34.78
2023-02-15T12:22:18.563Z,38.22
2023-02-15T12:24:47.296Z,38.22
2023-02-15T12:27:19.570Z,38.65
2023-02-15T12:29:49.265Z,37.70
2023-02-15T12:32:21.279Z,34.92
2023-02-15T12:34:48.934Z,36.88
2023-02-15T12:37:35.622Z,36.70
2023-02-15T12:40:19.581Z,34.92
2023-02-15T12:42:46.828Z,41.80
2023-02-15T12:45:25.779Z,36.28
2023-02-15T12:48:16.894Z,39.60
2023-02-15T12:50:56.378Z,37.05
2023-02-15T12:53:31.442Z,35.55
2023-02-15T12:55:58.683Z,35.90
2023-02-15T12:58:26.445Z,32.70
2023-02-15T13:01:17.179Z,37.70
2023-02-15T13:04:03.375Z,40.17
2023-02-15T13:06:32.782Z,34.65
2023-02-15T13:09:18.396Z,35.40
2023-02-15T13:11:45.824Z,36.65
2023-02-15T13:14:20.827Z,33.58
2023-02-15T13:16:49.438Z,33.45
2023-02-15T13:19:19.791Z,34.70
2023-02-15T13:21:48.856Z,37.10
2023-02-15T13:24:27.392Z,37.47
2023-02-15T13:27:09.357Z,36.03
2023-02-15T13:29:44.938Z,40.72
2023-02-15T13:32:17.373Z,39.13
2023-02-15T13:34:44.788Z,40.40
2023-02-15T13:37:23.656Z,41.08
2023-02-15T13:39:55.045Z,44.20
2023-02-15T13:42:25.471Z,38.92
2023-02-15T13:45:21.372Z,38.58
2023-02-15T13:48:04.131Z,34.63
2023-02-15T13:50:31.413Z,41.08
2023-02-15T13:53:04.924Z,37.08
2023-02-15T13:55:39.327Z,42.97
2023-02-15T13:58:16.124Z,36.95
2023-02-15T14:00:50.459Z,38.93
2023-02-15T14:03:20.547Z,39.92
2023-02-15T14:05:50.694Z,39.83
2023-02-15T14:08:41.276Z,38.65
2023-02-15T14:11:23.044Z,42.28
2023-02-15T14:14:09.088Z,39.67
2023-02-15T14:16:36.408Z,39.20
2023-02-15T14:19:16.125Z,39.00
2023-02-15T14:22:06.033Z,38.15
2023-02-15T14:24:44.334Z,42.05
2023-02-15T14:27:18.764Z,39.23
2023-02-15T14:29:59.477Z,41.80
2023-02-15T14:32:36.424Z,43.05
2023-02-15T14:35:05.124Z,40.30
2023-02-15T14:37:41.624Z,43.40
2023-02-15T14:40:33.613Z,42.77
2023-02-15T14:43:24.228Z,43.75
2023-02-15T14:45:54.757Z,44.90
2023-02-15T14:48:51.861Z,40.67
2023-02-15T14:51:51.416Z,38.65
2023-02-15T14:54:18.755Z,47.00
2023-02-15T14:56:46.801Z,39.40
2023-02-15T14:59:19.565Z,41.67
2023-02-15T15:02:13.526Z,40.88
2023-02-15T15:05:04.913Z,42.28
2023-02-15T15:07:40.256Z,40.23
2023-02-15T15:10:17.047Z,41.80
2023-02-15T15:12:45.486Z,40.88
2023-02-15T15:15:14.522Z,39.75
2023-02-15T15:17:41.788Z,43.78
2023-02-15T15:20:14.459Z,47.37
2023-02-15T15:22:43.383Z,44.20
2023-02-15T15:25:12.814Z,44.60
2023-02-15T15:27:40.136Z,43.28
2023-02-15T15:30:16.645Z,45.63
2023-02-15T15:32:58.024Z,44.77
2023-02-15T15:35:25.237Z,42.85
2023-02-15T15:38:01.698Z,49.20
2023-02-15T15:40:42.746Z,41.88
2023-02-15T15:43:28.984Z,43.78
2023-02-15T15:46:06.548Z,42.87
2023-02-15T15:48:35.954Z,47.42
2023-02-15T15:51:12.672Z,46.78
2023-02-15T15:53:43.253Z,42.00
2023-02-15T15:56:13.484Z,45.45
2023-02-15T15:58:44.934Z,48.33
2023-02-15T16:01:14.714Z,51.05
2023-02-15T16:03:52.365Z,42.00
2023-02-15T16:06:28.416Z,42.25
2023-02-15T16:08:55.893Z,47.15
2023-02-15T16:11:27.443Z,43.90
2023-02-15T16:13:55.525Z,46.40
2023-02-15T16:16:23.974Z,44.00
2023-02-15T16:18:52.196Z,44.55
2023-02-15T16:21:30.422Z,41.95
2023-02-15T16:24:05.086Z,46.30
2023-02-15T16:26:50.883Z,46.40
2023-02-15T16:29:18.963Z,48.03
2023-02-15T16:31:59.381Z,45.80
2023-02-15T16:34:28.955Z,49.42
2023-02-15T16:37:15.750Z,47.63
2023-02-15T16:39:43.820Z,48.15
2023-02-15T16:42:12.399Z,46.42
2023-02-15T16:44:41.299Z,43.95
2023-02-15T16:47:29.429Z,47.92
2023-02-15T16:49:58.143Z,40.57
2023-02-15T16:52:26.425Z,46.38
2023-02-15T16:55:01.082Z,44.15
2023-02-15T16:57:35.814Z,49.65
2023-02-15T17:00:07.693Z,44.58
2023-02-15T17:02:56.453Z,46.63
2023-02-15T17:05:23.620Z,45.13
2023-02-15T17:08:06.746Z,43.60
2023-02-15T17:10:39.815Z,44.40
2023-02-15T17:13:13.331Z,52.35
2023-02-15T17:16:04.084Z,53.03
2023-02-15T17:18:31.604Z,45.78
2023-02-15T17:21:00.834Z,49.67
2023-02-15T17:23:33.373Z,49.33
2023-02-15T17:26:02.138Z,51.67
2023-02-15T17:28:31.219Z,44.73
2023-02-15T17:30:59.257Z,46.72
2023-02-15T17:33:35.929Z,49.67
2023-02-15T17:36:15.516Z,50.15
2023-02-15T17:39:00.310Z,51.53
2023-02-15T17:41:28.388Z,51.40
2023-02-15T17:43:55.668Z,49.35
2023-02-15T17:46:23.321Z,50.55
2023-02-15T17:48:51.818Z,46.55
2023-02-15T17:51:20.014Z,47.63
2023-02-15T17:54:06.449Z,50.03
2023-02-15T17:56:34.272Z,46.78
2023-02-15T17:59:01.713Z,49.83
2023-02-15T18:01:47.629Z,50.00
2023-02-15T18:04:34.087Z,49.13
2023-02-15T18:07:20.030Z,45.43
2023-02-15T18:10:05.877Z,47.78
2023-02-15T18:12:34.032Z,45.13
2023-02-15T18:15:01.750Z,50.00
2023-02-15T18:17:31.006Z,45.25
2023-02-15T18:19:58.486Z,47.30
2023-02-15T18:22:25.817Z,48.92
2023-02-15T18:24:53.213Z,49.13
2023-02-15T18:27:21.285Z,46.33
2023-02-15T18:29:49.061Z,44.67
2023-02-15T18:32:35.547Z,47.23
2023-02-15T18:35:03.445Z,47.92
2023-02-15T18:37:33.034Z,48.30
2023-02-15T18:40:01.132Z,45.33
2023-02-15T18:42:31.515Z,45.60
2023-02-15T18:45:00.554Z,44.60
2023-02-15T18:47:28.084Z,46.03
2023-02-15T18:49:55.451Z,44.17
2023-02-15T18:52:24.158Z,49.30
2023-02-15T18:54:53.861Z,44.88
2023-02-15T18:57:21.182Z,46.27
2023-02-15T18:59:48.496Z,45.85
2023-02-15T19:02:17.223Z,51.10
2023-02-15T19:04:45.406Z,43.80
2023-02-15T19:07:18.627Z,47.00
2023-02-15T19:09:48.066Z,46.50
2023-02-15T19:12:15.359Z,46.75
2023-02-15T19:14:42.622Z,43.95
2023-02-15T19:17:15.362Z,43.92
2023-02-15T19:19:42.777Z,43.67
2023-02-15T19:22:14.954Z,47.80
2023-02-15T19:24:43.894Z,48.58
2023-02-15T19:27:19.917Z,45.30
2023-02-15T19:29:47.270Z,46.95
2023-02-15T19:32:14.723Z,45.17
2023-02-15T19:34:42.153Z,48.07
2023-02-15T19:37:12.404Z,46.75
2023-02-15T19:39:40.690Z,53.38
2023-02-15T19:42:13.902Z,45.20
2023-02-15T19:44:43.622Z,45.85
2023-02-15T19:47:13.304Z,45.90
2023-02-15T19:49:40.798Z,45.33
2023-02-15T19:52:14.766Z,57.65
2023-02-15T19:54:44.594Z,51.55
2023-02-15T19:57:13.656Z,54.63
2023-02-15T19:59:41.442Z,44.83
2023-02-15T20:02:13.541Z,44.45
2023-02-15T20:04:40.908Z,47.55
2023-02-15T20:07:10.404Z,48.63
2023-02-15T20:09:40.785Z,44.08
2023-02-15T20:12:20.694Z,48.63
2023-02-15T20:14:47.975Z,48.25
2023-02-15T20:17:15.310Z,45.53
2023-02-15T20:19:42.686Z,43.03
2023-02-15T20:22:17.039Z,43.28
2023-02-15T20:24:44.327Z,45.28
2023-02-15T20:27:16.540Z,43.75
2023-02-15T20:29:43.888Z,44.10
2023-02-15T20:32:11.895Z,45.42
2023-02-15T20:34:39.611Z,44.72
2023-02-15T20:37:07.162Z,46.87
2023-02-15T20:39:35.102Z,46.58
2023-02-15T20:42:02.680Z,46.22
2023-02-15T20:44:34.509Z,43.38
2023-02-15T20:47:02.761Z,44.33
2023-02-15T20:49:30.132Z,45.30
2023-02-15T20:51:58.420Z,45.60
2023-02-15T20:54:30.760Z,59.08
2023-02-15T20:56:59.206Z,52.33
2023-02-15T20:59:31.913Z,61.25
2023-02-15T21:02:00.527Z,51.27
2023-02-15T21:04:30.389Z,49.42
2023-02-15T21:06:57.770Z,42.47
2023-02-15T21:09:25.057Z,47.90
2023-02-15T21:11:52.955Z,48.42
2023-02-15T21:14:21.150Z,47.83
2023-02-15T21:16:49.210Z,43.67
2023-02-15T21:19:17.755Z,46.00
2023-02-15T21:21:45.386Z,48.20
2023-02-15T21:24:29.138Z,48.05
2023-02-15T21:26:57.370Z,46.95
2023-02-15T21:29:26.508Z,40.83
2023-02-15T21:31:54.030Z,48.03
2023-02-15T21:34:21.405Z,43.80
2023-02-15T21:36:50.779Z,47.17
2023-02-15T21:39:25.727Z,45.42
2023-02-15T21:42:12.802Z,47.08
2023-02-15T21:44:58.854Z,45.80
2023-02-15T21:47:46.289Z,47.42
2023-02-15T21:50:37.524Z,47.97
2023-02-15T21:53:05.724Z,46.53
2023-02-15T21:55:33.469Z,45.05
2023-02-15T21:58:01.291Z,49.65
2023-02-15T22:00:28.673Z,44.08
2023-02-15T22:02:58.099Z,45.22
2023-02-15T22:05:27.603Z,44.30
2023-02-15T22:07:54.963Z,44.45
2023-02-15T22:10:22.903Z,45.80
2023-02-15T22:12:51.533Z,44.35
2023-02-15T22:15:26.920Z,43.92
2023-02-15T22:17:54.219Z,49.28
2023-02-15T22:20:22.856Z,43.47
2023-02-15T22:22:50.801Z,45.72
2023-02-15T22:25:19.672Z,42.33
2023-02-15T22:27:48.006Z,44.78
2023-02-15T22:30:20.666Z,44.22
2023-02-15T22:32:48.132Z,45.50
2023-02-15T22:35:20.277Z,46.10
2023-02-15T22:37:47.537Z,45.88
2023-02-15T22:40:15.941Z,44.30
2023-02-15T22:42:47.016Z,45.45
2023-02-15T22:45:36.301Z,45.35
2023-02-15T22:48:03.787Z,53.80
2023-02-15T22:50:32.192Z,47.30
2023-02-15T22:53:03.370Z,46.67
2023-02-15T22:55:33.506Z,46.38
2023-02-15T22:58:01.144Z,46.47
2023-02-15T23:00:30.654Z,49.42
2023-02-15T23:02:57.961Z,42.72
2023-02-15T23:05:29.515Z,46.92
2023-02-15T23:07:57.879Z,45.00
2023-02-15T23:10:26.003Z,47.35
2023-02-15T23:13:24.105Z,45.63
2023-02-15T23:15:57.924Z,46.15
2023-02-15T23:18:27.080Z,46.42
2023-02-15T23:20:59.322Z,43.17
2023-02-15T23:23:28.722Z,47.53
2023-02-15T23:25:56.406Z,49.47
2023-02-15T23:28:35.595Z,46.08
2023-02-15T23:31:03.666Z,48.42
2023-02-15T23:33:33.599Z,50.05
2023-02-15T23:36:00.887Z,47.03
2023-02-15T23:38:29.487Z,49.13
2023-02-15T23:41:19.395Z,49.15
2023-02-15T23:43:49.570Z,47.25
2023-02-15T23:46:24.820Z,45.60
2023-02-15T23:48:53.316Z,45.35
2023-02-15T23:51:21.653Z,50.67
2023-02-15T23:53:48.892Z,42.67
2023-02-15T23:56:16.466Z,51.85
2023-02-15T23:58:44.816Z,47.13
